createdAt,value
2018-02-21T00:01:04.820Z,58.60
2018-02-21T00:03:33.869Z,59.10
2018-02-21T00:06:02.148Z,59.10
2018-02-21T00:08:30.423Z,58.30
2018-02-21T00:10:58.732Z,59.00
2018-02-21T00:13:26.963Z,58.90
2018-02-21T00:15:55.249Z,59.20
2018-02-21T00:18:23.517Z,58.50
2018-02-21T00:20:51.804Z,58.80
2018-02-21T00:23:20.138Z,59.30
2018-02-21T00:25:49.192Z,59.00
2018-02-21T00:28:17.500Z,59.00
2018-02-21T00:30:45.730Z,59.20
2018-02-21T00:33:15.781Z,58.90
2018-02-21T00:35:44.088Z,58.30
2018-02-21T00:38:13.159Z,58.70
2018-02-21T00:40:41.419Z,58.70
2018-02-21T00:43:09.681Z,59.00
2018-02-21T00:45:37.963Z,59.20
2018-02-21T00:48:06.267Z,59.20
2018-02-21T00:50:34.578Z,59.50
2018-02-21T00:53:02.830Z,59.40
2018-02-21T00:55:31.911Z,58.70
2018-02-21T00:58:00.170Z,71.30
2018-02-21T01:00:28.438Z,59.50
2018-02-21T01:02:56.732Z,59.80
2018-02-21T01:05:25.042Z,60.90
2018-02-21T01:07:54.422Z,58.30
2018-02-21T01:10:22.694Z,58.70
2018-02-21T01:12:51.000Z,60.10
2018-02-21T01:15:20.023Z,59.00
2018-02-21T01:17:48.280Z,59.00
2018-02-21T01:20:17.302Z,58.80
2018-02-21T01:22:45.602Z,58.80
2018-02-21T01:25:13.901Z,59.00
2018-02-21T01:27:42.157Z,59.20
2018-02-21T01:30:10.492Z,59.00
2018-02-21T01:32:39.569Z,59.20
2018-02-21T01:35:08.630Z,59.90
2018-02-21T01:37:36.930Z,59.30
2018-02-21T01:40:05.223Z,59.00
2018-02-21T01:42:34.289Z,59.10
2018-02-21T01:45:02.547Z,59.10
2018-02-21T01:47:30.884Z,59.20
2018-02-21T01:49:59.911Z,59.20
2018-02-21T01:52:28.208Z,59.20
2018-02-21T01:54:56.526Z,59.00
2018-02-21T01:57:25.538Z,59.00
2018-02-21T01:59:53.848Z,58.90
2018-02-21T02:02:22.093Z,58.30
2018-02-21T02:04:50.377Z,59.00
2018-02-21T02:07:18.638Z,59.00
2018-02-21T02:09:47.638Z,58.30
2018-02-21T02:12:15.953Z,58.30
2018-02-21T02:14:44.197Z,58.90
2018-02-21T02:17:12.466Z,59.70
2018-02-21T02:19:40.760Z,59.80
2018-02-21T02:22:09.052Z,59.10
2018-02-21T02:24:37.346Z,60.20
2018-02-21T02:27:05.688Z,58.60
2018-02-21T02:29:33.976Z,60.10
2018-02-21T02:32:02.252Z,60.50
2018-02-21T02:34:30.551Z,60.50
2018-02-21T02:36:58.843Z,60.30
2018-02-21T02:39:39.087Z,61.70
2018-02-21T02:42:07.338Z,61.70
2018-02-21T02:44:35.684Z,60.80
2018-02-21T02:47:04.793Z,61.40
2018-02-21T02:49:33.852Z,60.80
2018-02-21T02:52:02.205Z,60.80
2018-02-21T02:54:30.511Z,60.00
2018-02-21T02:56:58.746Z,61.30
2018-02-21T02:59:26.989Z,60.60
2018-02-21T03:01:56.048Z,60.70
2018-02-21T03:04:24.341Z,60.60
2018-02-21T03:06:52.646Z,61.40
2018-02-21T03:09:21.713Z,60.30
2018-02-21T03:11:49.971Z,60.30
2018-02-21T03:14:18.249Z,60.80
2018-02-21T03:16:46.550Z,60.40
2018-02-21T03:19:14.822Z,61.00
2018-02-21T03:21:43.115Z,61.00
2018-02-21T03:24:11.426Z,60.90
2018-02-21T03:26:39.713Z,61.00
2018-02-21T03:29:08.000Z,60.90
2018-02-21T03:31:36.254Z,60.40
2018-02-21T03:34:04.501Z,60.90
2018-02-21T03:36:33.549Z,60.40
2018-02-21T03:39:01.838Z,60.30
2018-02-21T03:41:30.137Z,60.70
2018-02-21T03:43:58.426Z,59.90
2018-02-21T03:46:26.725Z,59.50
2018-02-21T03:48:55.023Z,60.10
2018-02-21T03:51:23.341Z,59.90
2018-02-21T03:53:51.646Z,60.10
2018-02-21T03:56:20.664Z,60.70
2018-02-21T03:58:48.966Z,60.70
2018-02-21T04:01:17.257Z,60.30
2018-02-21T04:03:45.510Z,60.20
2018-02-21T04:06:13.762Z,60.40
2018-02-21T04:08:42.067Z,60.10
2018-02-21T04:11:10.364Z,60.30
2018-02-21T04:13:38.611Z,60.60
2018-02-21T04:16:06.949Z,60.00
2018-02-21T04:18:35.237Z,59.80
2018-02-21T04:21:04.273Z,60.00
2018-02-21T04:23:32.545Z,59.90
2018-02-21T04:26:00.818Z,60.00
2018-02-21T04:28:29.077Z,60.00
2018-02-21T04:30:57.338Z,59.70
2018-02-21T04:33:26.404Z,59.60
2018-02-21T04:35:54.654Z,59.60
2018-02-21T04:38:22.973Z,59.40
2018-02-21T04:40:51.226Z,59.70
2018-02-21T04:43:19.525Z,60.30
2018-02-21T04:45:47.833Z,60.90
2018-02-21T04:48:16.921Z,60.90
2018-02-21T04:50:45.969Z,60.70
2018-02-21T04:53:14.237Z,60.70
2018-02-21T04:55:48.301Z,60.80
2018-02-21T04:58:22.904Z,60.40
2018-02-21T05:00:51.182Z,60.30
2018-02-21T05:03:20.369Z,60.60
2018-02-21T05:05:48.631Z,60.20
2018-02-21T05:08:16.919Z,59.90
2018-02-21T05:10:45.196Z,59.70
2018-02-21T05:13:13.443Z,59.70
2018-02-21T05:15:41.774Z,59.70
2018-02-21T05:18:10.018Z,59.60
2018-02-21T05:20:38.312Z,59.80
2018-02-21T05:23:06.587Z,60.00
2018-02-21T05:25:34.868Z,59.90
2018-02-21T05:28:03.194Z,59.60
2018-02-21T05:30:31.481Z,60.40
2018-02-21T05:32:59.778Z,60.00
2018-02-21T05:35:28.079Z,59.90
2018-02-21T05:37:56.410Z,59.80
2018-02-21T05:40:24.681Z,60.00
2018-02-21T05:42:52.922Z,60.00
2018-02-21T05:45:21.253Z,59.90
2018-02-21T05:47:49.498Z,60.10
2018-02-21T05:50:18.526Z,59.20
2018-02-21T05:52:46.788Z,59.30
2018-02-21T05:55:15.101Z,59.40
2018-02-21T05:57:43.355Z,60.00
2018-02-21T06:00:12.420Z,59.20
2018-02-21T06:02:41.543Z,59.10
2018-02-21T06:05:09.912Z,59.10
2018-02-21T06:07:38.171Z,59.20
2018-02-21T06:10:06.473Z,59.60
2018-02-21T06:12:34.729Z,60.10
2018-02-21T06:15:04.528Z,59.70
2018-02-21T06:17:33.550Z,59.30
2018-02-21T06:20:01.858Z,59.30
2018-02-21T06:22:30.163Z,60.10
2018-02-21T06:24:58.443Z,59.50
2018-02-21T06:27:26.774Z,59.40
2018-02-21T06:29:55.057Z,59.80
2018-02-21T06:32:23.312Z,59.70
2018-02-21T06:34:51.570Z,60.50
2018-02-21T06:37:20.661Z,59.60
2018-02-21T06:39:48.987Z,59.60
2018-02-21T06:42:17.242Z,59.80
2018-02-21T06:44:45.515Z,59.10
2018-02-21T06:47:14.542Z,60.80
2018-02-21T06:49:42.873Z,60.70
2018-02-21T06:52:11.924Z,60.90
2018-02-21T06:54:43.836Z,60.90
2018-02-21T06:57:12.932Z,61.60
2018-02-21T06:59:41.989Z,62.10
2018-02-21T07:02:22.268Z,62.00
2018-02-21T07:04:51.356Z,60.70
2018-02-21T07:07:19.610Z,60.60
2018-02-21T07:09:47.937Z,60.50
2018-02-21T07:12:16.959Z,61.50
2018-02-21T07:14:45.300Z,61.40
2018-02-21T07:17:14.318Z,61.40
2018-02-21T07:19:42.622Z,61.30
2018-02-21T07:22:10.921Z,60.40
2018-02-21T07:24:39.179Z,61.00
2018-02-21T07:27:07.525Z,60.90
2018-02-21T07:29:35.832Z,60.70
2018-02-21T07:32:04.385Z,61.40
2018-02-21T07:34:33.486Z,60.90
2018-02-21T07:37:01.831Z,60.70
2018-02-21T07:39:30.160Z,60.80
2018-02-21T07:41:58.460Z,60.40
2018-02-21T07:44:27.397Z,60.30
2018-02-21T07:46:56.481Z,60.50
2018-02-21T07:49:24.773Z,60.50
2018-02-21T07:51:53.793Z,60.60
2018-02-21T07:54:22.091Z,60.60
2018-02-21T07:56:50.500Z,60.40
2018-02-21T07:59:18.790Z,60.20
2018-02-21T08:01:47.061Z,60.20
2018-02-21T08:04:16.125Z,60.10
2018-02-21T08:06:44.486Z,60.10
2018-02-21T08:09:12.792Z,59.60
2018-02-21T08:11:41.045Z,60.00
2018-02-21T08:14:09.366Z,60.00
2018-02-21T08:16:37.651Z,60.10
2018-02-21T08:19:06.754Z,59.70
2018-02-21T08:21:35.808Z,59.60
2018-02-21T08:24:04.926Z,59.60
2018-02-21T08:26:33.175Z,59.40
2018-02-21T08:29:01.459Z,59.40
2018-02-21T08:31:29.716Z,59.30
2018-02-21T08:33:57.976Z,59.10
2018-02-21T08:36:26.233Z,59.10
2018-02-21T08:38:55.284Z,59.00
2018-02-21T08:41:23.582Z,59.00
2018-02-21T08:43:51.865Z,59.00
2018-02-21T08:46:20.111Z,58.80
2018-02-21T08:48:48.602Z,58.80
2018-02-21T08:51:16.832Z,58.60
2018-02-21T08:53:45.164Z,58.60
2018-02-21T08:56:13.411Z,58.50
2018-02-21T08:58:41.714Z,58.50
2018-02-21T09:01:09.966Z,58.50
2018-02-21T09:03:38.223Z,58.50
2018-02-21T09:06:06.630Z,58.50
2018-02-21T09:08:34.931Z,58.70
2018-02-21T09:11:03.185Z,58.80
2018-02-21T09:13:31.459Z,58.70
2018-02-21T09:15:59.768Z,59.00
2018-02-21T09:18:28.001Z,58.30
2018-02-21T09:20:56.285Z,58.40
2018-02-21T09:23:24.541Z,58.30
2018-02-21T09:25:52.848Z,58.20
2018-02-21T09:28:21.095Z,58.50
2018-02-21T09:30:49.337Z,58.20
2018-02-21T09:33:17.649Z,58.20
2018-02-21T09:35:46.144Z,57.80
2018-02-21T09:38:14.376Z,57.90
2018-02-21T09:43:05.164Z,58.10
2018-02-21T09:45:33.450Z,58.00
2018-02-21T09:48:01.696Z,58.00
2018-02-21T09:50:29.934Z,58.00
2018-02-21T09:52:58.997Z,57.90
2018-02-21T09:55:27.285Z,57.90
2018-02-21T09:57:55.537Z,57.90
2018-02-21T10:00:23.765Z,57.90
2018-02-21T10:02:52.823Z,57.50
2018-02-21T10:05:21.104Z,57.50
2018-02-21T10:07:49.403Z,57.50
2018-02-21T10:10:17.702Z,57.50
2018-02-21T10:12:46.692Z,58.80
2018-02-21T10:15:14.983Z,58.10
2018-02-21T10:17:43.263Z,57.40
2018-02-21T10:20:11.553Z,57.50
2018-02-21T10:22:39.773Z,57.30
2018-02-21T10:25:08.015Z,56.50
2018-02-21T10:27:36.312Z,56.00
2018-02-21T10:30:04.589Z,56.10
2018-02-21T10:32:32.880Z,55.80
2018-02-21T10:35:01.089Z,56.90
2018-02-21T10:37:29.372Z,57.00
2018-02-21T10:39:57.674Z,56.30
2018-02-21T10:42:25.901Z,56.00
2018-02-21T10:44:54.923Z,56.40
2018-02-21T10:47:23.207Z,56.40
2018-02-21T10:49:51.465Z,56.70
2018-02-21T10:52:20.497Z,56.50
2018-02-21T10:54:48.773Z,56.50
2018-02-21T10:57:17.055Z,56.30
2018-02-21T10:59:45.282Z,57.50
2018-02-21T11:02:14.343Z,56.50
2018-02-21T11:04:42.565Z,56.50
2018-02-21T11:07:10.861Z,56.60
2018-02-21T11:09:39.085Z,57.20
2018-02-21T11:12:07.405Z,56.30
2018-02-21T11:14:35.676Z,55.90
2018-02-21T11:17:04.691Z,56.40
2018-02-21T11:19:33.001Z,56.30
2018-02-21T11:22:01.262Z,56.90
2018-02-21T11:24:29.532Z,56.70
2018-02-21T11:26:57.816Z,56.80
2018-02-21T11:29:27.703Z,55.90
2018-02-21T11:31:55.950Z,56.30
2018-02-21T11:34:25.007Z,55.70
2018-02-21T11:36:53.248Z,55.60
2018-02-21T11:39:21.489Z,56.10
2018-02-21T11:41:49.747Z,55.00
2018-02-21T11:44:17.973Z,56.70
2018-02-21T11:46:46.219Z,55.50
2018-02-21T11:49:15.220Z,55.10
2018-02-21T11:51:44.291Z,53.40
2018-02-21T11:54:12.533Z,53.40
2018-02-21T11:56:40.811Z,53.60
2018-02-21T11:59:09.065Z,52.60
2018-02-21T12:01:37.349Z,53.30
2018-02-21T12:04:05.621Z,52.80
2018-02-21T12:06:33.861Z,52.90
2018-02-21T12:09:02.116Z,52.00
2018-02-21T12:11:30.362Z,48.90
2018-02-21T12:13:58.646Z,50.30
2018-02-21T12:16:26.890Z,49.70
2018-02-21T12:18:55.947Z,47.40
2018-02-21T12:21:24.249Z,47.40
2018-02-21T12:23:52.541Z,49.90
2018-02-21T12:26:21.603Z,48.70
2018-02-21T12:28:49.849Z,48.70
2018-02-21T12:31:18.136Z,46.90
2018-02-21T12:33:46.393Z,48.80
2018-02-21T12:36:14.638Z,46.70
2018-02-21T12:38:43.670Z,45.70
2018-02-21T12:41:17.545Z,45.40
2018-02-21T12:43:46.618Z,44.30
2018-02-21T12:46:14.909Z,44.50
2018-02-21T12:48:43.231Z,49.70
2018-02-21T12:51:11.466Z,46.40
2018-02-21T12:53:40.527Z,49.90
2018-02-21T12:56:08.826Z,49.90
2018-02-21T12:58:37.107Z,45.50
2018-02-21T13:01:05.357Z,47.00
2018-02-21T13:03:33.617Z,44.50
2018-02-21T13:06:01.942Z,48.60
2018-02-21T13:08:30.181Z,50.00
2018-02-21T13:10:58.499Z,50.20
2018-02-21T13:13:26.767Z,44.60
2018-02-21T13:15:55.054Z,51.40
2018-02-21T13:18:24.129Z,44.50
2018-02-21T13:20:52.374Z,44.70
2018-02-21T13:23:20.638Z,47.50
2018-02-21T13:25:48.912Z,43.80
2018-02-21T13:28:17.956Z,47.40
2018-02-21T13:30:46.211Z,46.80
2018-02-21T13:33:14.517Z,48.70
2018-02-21T13:35:42.809Z,47.10
2018-02-21T13:38:11.862Z,39.80
2018-02-21T13:40:40.151Z,39.70
2018-02-21T13:43:08.418Z,45.40
2018-02-21T13:45:36.759Z,44.50
2018-02-21T13:48:05.067Z,40.80
2018-02-21T13:50:33.450Z,40.70
2018-02-21T13:53:01.722Z,43.90
2018-02-21T13:55:30.774Z,41.70
2018-02-21T13:57:59.034Z,41.70
2018-02-21T14:00:28.086Z,42.00
2018-02-21T14:02:56.357Z,42.10
2018-02-21T14:05:24.600Z,43.50
2018-02-21T14:07:53.662Z,40.40
2018-02-21T14:10:21.957Z,40.50
2018-02-21T14:12:50.963Z,39.50
2018-02-21T14:15:19.984Z,38.60
2018-02-21T14:17:48.264Z,38.60
2018-02-21T14:20:16.588Z,38.00
2018-02-21T14:22:44.861Z,37.10
2018-02-21T14:25:13.141Z,39.00
2018-02-21T14:27:41.435Z,36.50
2018-02-21T14:30:10.496Z,37.70
2018-02-21T14:32:38.804Z,37.40
2018-02-21T14:35:07.089Z,37.10
2018-02-21T14:37:35.362Z,36.80
2018-02-21T14:40:04.433Z,38.30
2018-02-21T14:42:32.723Z,38.30
2018-02-21T14:45:01.004Z,36.40
2018-02-21T14:47:29.234Z,36.90
2018-02-21T14:49:57.545Z,35.50
2018-02-21T14:52:25.809Z,37.10
2018-02-21T14:54:54.110Z,37.40
2018-02-21T14:57:22.349Z,35.30
2018-02-21T14:59:50.678Z,36.00
2018-02-21T15:02:18.914Z,36.70
2018-02-21T15:04:47.194Z,36.80
2018-02-21T15:07:15.499Z,36.60
2018-02-21T15:09:43.775Z,36.70
2018-02-21T15:12:12.036Z,37.10
2018-02-21T15:14:40.284Z,37.00
2018-02-21T15:17:08.579Z,38.20
2018-02-21T15:19:36.856Z,38.40
2018-02-21T15:22:05.126Z,39.00
2018-02-21T15:24:33.658Z,38.30
2018-02-21T15:27:01.874Z,38.40
2018-02-21T15:29:30.130Z,38.60
2018-02-21T15:31:58.370Z,38.50
2018-02-21T15:34:26.706Z,39.40
2018-02-21T15:36:54.971Z,39.10
2018-02-21T15:39:23.244Z,39.10
2018-02-21T15:41:51.494Z,39.50
2018-02-21T15:44:20.509Z,39.40
2018-02-21T15:46:48.802Z,39.30
2018-02-21T15:49:17.066Z,39.30
2018-02-21T15:51:45.375Z,39.00
2018-02-21T15:54:13.663Z,39.60
2018-02-21T15:56:41.914Z,39.60
2018-02-21T15:59:10.207Z,39.60
2018-02-21T16:01:38.476Z,39.60
2018-02-21T16:04:06.770Z,39.90
2018-02-21T16:06:35.007Z,40.40
2018-02-21T16:09:04.077Z,40.20
2018-02-21T16:11:32.305Z,40.20
2018-02-21T16:14:00.560Z,41.30
2018-02-21T16:16:28.805Z,40.40
2018-02-21T16:18:57.848Z,40.90
2018-02-21T16:21:26.094Z,40.90
2018-02-21T16:23:55.136Z,40.80
2018-02-21T16:26:23.368Z,40.70
2018-02-21T16:28:51.640Z,40.90
2018-02-21T16:31:20.667Z,41.20
2018-02-21T16:33:48.905Z,41.10
2018-02-21T16:36:17.936Z,41.30
2018-02-21T16:38:46.215Z,41.30
2018-02-21T16:41:14.505Z,41.30
2018-02-21T16:43:42.807Z,41.30
2018-02-21T16:46:11.079Z,41.50
2018-02-21T16:48:39.360Z,41.50
2018-02-21T16:51:07.610Z,41.70
2018-02-21T16:53:35.916Z,41.70
2018-02-21T16:56:04.194Z,41.90
2018-02-21T16:58:32.437Z,42.10
2018-02-21T17:01:00.769Z,42.10
2018-02-21T17:03:29.800Z,43.00
2018-02-21T17:05:58.061Z,42.30
2018-02-21T17:08:26.299Z,42.30
2018-02-21T17:10:54.556Z,42.40
2018-02-21T17:13:22.801Z,42.40
2018-02-21T17:15:51.097Z,42.70
2018-02-21T17:18:19.378Z,42.70
2018-02-21T17:20:47.654Z,42.90
2018-02-21T17:23:15.985Z,43.00
2018-02-21T17:25:44.982Z,43.30
2018-02-21T17:28:13.528Z,43.20
2018-02-21T17:30:41.794Z,43.30
2018-02-21T17:33:10.041Z,43.20
2018-02-21T17:35:38.368Z,43.40
2018-02-21T17:38:06.621Z,43.50
2018-02-21T17:40:34.878Z,44.60
2018-02-21T17:43:03.103Z,44.20
2018-02-21T17:45:31.398Z,44.00
2018-02-21T17:48:00.466Z,44.10
2018-02-21T17:50:28.689Z,44.10
2018-02-21T17:52:56.988Z,44.70
2018-02-21T17:55:25.986Z,44.70
2018-02-21T17:57:54.281Z,44.60
2018-02-21T18:00:22.642Z,44.50
2018-02-21T18:02:50.923Z,44.50
2018-02-21T18:05:19.174Z,44.60
2018-02-21T18:07:47.512Z,44.70
2018-02-21T18:10:15.791Z,44.70
2018-02-21T18:12:44.067Z,44.90
2018-02-21T18:15:12.388Z,44.70
2018-02-21T18:17:40.671Z,44.90
2018-02-21T18:20:08.972Z,44.90
2018-02-21T18:22:37.209Z,45.20
2018-02-21T18:25:05.454Z,45.40
2018-02-21T18:27:33.710Z,45.40
2018-02-21T18:30:01.993Z,45.40
2018-02-21T18:32:30.286Z,45.50
2018-02-21T18:34:59.149Z,45.70
2018-02-21T18:37:27.474Z,45.60
2018-02-21T18:39:56.473Z,45.50
2018-02-21T18:42:25.525Z,45.70
2018-02-21T18:44:53.815Z,45.70
2018-02-21T18:47:22.050Z,45.50
2018-02-21T18:49:50.820Z,45.70
2018-02-21T18:52:19.048Z,45.90
2018-02-21T18:54:47.372Z,45.80
2018-02-21T18:57:16.420Z,45.90
2018-02-21T18:59:44.648Z,45.90
2018-02-21T19:02:13.634Z,45.70
2018-02-21T19:04:41.980Z,46.00
2018-02-21T19:07:10.252Z,46.00
2018-02-21T19:09:38.532Z,46.10
2018-02-21T19:12:08.739Z,46.10
2018-02-21T19:14:36.988Z,46.00
2018-02-21T19:17:05.264Z,46.10
2018-02-21T19:19:33.618Z,46.20
2018-02-21T19:22:02.652Z,46.10
2018-02-21T19:24:30.923Z,46.00
2018-02-21T19:26:59.208Z,46.40
2018-02-21T19:29:27.436Z,46.30
2018-02-21T19:31:56.451Z,46.40
2018-02-21T19:34:24.768Z,46.40
2018-02-21T19:36:53.029Z,46.50
2018-02-21T19:39:21.314Z,46.50
2018-02-21T19:41:49.637Z,46.60
2018-02-21T19:44:18.689Z,46.10
2018-02-21T19:46:46.948Z,46.10
2018-02-21T19:49:15.237Z,46.50
2018-02-21T19:51:43.535Z,46.70
2018-02-21T19:54:11.816Z,46.70
2018-02-21T19:56:40.107Z,46.00
2018-02-21T19:59:08.367Z,46.70
2018-02-21T20:01:36.609Z,46.60
2018-02-21T20:04:04.864Z,46.40
2018-02-21T20:06:33.124Z,46.60
2018-02-21T20:09:02.184Z,46.40
2018-02-21T20:11:30.522Z,46.40
2018-02-21T20:13:58.749Z,46.40
2018-02-21T20:16:27.045Z,46.70
2018-02-21T20:18:55.338Z,46.70
2018-02-21T20:21:24.380Z,46.70
2018-02-21T20:23:52.657Z,46.70
2018-02-21T20:26:21.698Z,46.90
2018-02-21T20:28:50.766Z,46.30
2018-02-21T20:31:19.010Z,46.30
2018-02-21T20:33:47.285Z,46.40
2018-02-21T20:36:15.565Z,46.40
2018-02-21T20:38:44.784Z,46.30
2018-02-21T20:41:13.078Z,46.40
2018-02-21T20:43:42.866Z,46.60
2018-02-21T20:46:11.144Z,46.40
2018-02-21T20:48:39.385Z,46.70
2018-02-21T20:51:07.661Z,46.80
2018-02-21T20:53:35.936Z,46.70
2018-02-21T20:56:04.964Z,46.50
2018-02-21T20:58:33.279Z,46.40
2018-02-21T21:01:01.563Z,46.20
2018-02-21T21:03:29.861Z,46.50
2018-02-21T21:05:58.891Z,46.70
2018-02-21T21:08:27.188Z,46.70
2018-02-21T21:10:55.679Z,46.60
2018-02-21T21:13:23.947Z,46.50
2018-02-21T21:15:52.198Z,46.70
2018-02-21T21:18:20.508Z,46.80
2018-02-21T21:20:48.755Z,46.50
2018-02-21T21:23:16.997Z,46.40
2018-02-21T21:25:46.080Z,46.50
2018-02-21T21:28:15.088Z,46.80
2018-02-21T21:30:44.189Z,46.60
2018-02-21T21:33:12.488Z,46.60
2018-02-21T21:35:40.804Z,46.50
2018-02-21T21:38:09.042Z,46.60
2018-02-21T21:40:37.279Z,46.70
2018-02-21T21:43:06.349Z,46.70
2018-02-21T21:45:34.573Z,46.70
2018-02-21T21:48:02.848Z,46.70
2018-02-21T21:50:31.131Z,46.80
2018-02-21T21:52:59.376Z,46.60
2018-02-21T21:55:28.452Z,46.70
2018-02-21T21:57:56.732Z,46.70
2018-02-21T22:00:25.069Z,46.40
2018-02-21T22:02:53.360Z,46.60
2018-02-21T22:05:21.640Z,46.60
2018-02-21T22:07:50.736Z,46.70
2018-02-21T22:10:18.982Z,46.60
2018-02-21T22:12:47.257Z,46.60
2018-02-21T22:15:15.550Z,46.40
2018-02-21T22:17:43.826Z,46.40
2018-02-21T22:20:12.080Z,46.20
2018-02-21T22:22:40.319Z,46.70
2018-02-21T22:25:08.602Z,46.70
2018-02-21T22:27:37.781Z,46.40
2018-02-21T22:30:06.038Z,46.70
2018-02-21T22:32:34.463Z,46.60
2018-02-21T22:35:03.296Z,46.50
2018-02-21T22:37:31.633Z,46.40
2018-02-21T22:40:01.514Z,46.40
2018-02-21T22:42:29.808Z,46.60
2018-02-21T22:44:58.890Z,46.70
2018-02-21T22:47:28.088Z,47.40
2018-02-21T22:49:56.342Z,46.50
2018-02-21T22:52:24.633Z,46.90
2018-02-21T22:54:54.267Z,46.50
2018-02-21T22:57:22.547Z,46.80
2018-02-21T22:59:50.820Z,46.50
2018-02-21T23:02:19.099Z,46.40
2018-02-21T23:04:47.392Z,47.00
2018-02-21T23:07:15.700Z,46.70
2018-02-21T23:09:43.980Z,46.60
2018-02-21T23:12:12.250Z,46.50
2018-02-21T23:14:41.252Z,46.50
2018-02-21T23:17:09.513Z,47.10
2018-02-21T23:19:37.800Z,46.70
2018-02-21T23:22:06.137Z,46.70
2018-02-21T23:24:34.438Z,46.40
2018-02-21T23:27:03.452Z,46.80
2018-02-21T23:29:31.750Z,46.80
2018-02-21T23:31:59.977Z,46.60
2018-02-21T23:34:28.238Z,46.50
2018-02-21T23:36:56.464Z,46.40
2018-02-21T23:39:24.745Z,46.50
2018-02-21T23:41:52.977Z,46.60
2018-02-21T23:44:21.276Z,46.50
2018-02-21T23:46:50.335Z,46.70
2018-02-21T23:49:18.570Z,46.70
2018-02-21T23:51:46.878Z,46.60
2018-02-21T23:54:15.158Z,46.70
2018-02-21T23:56:43.414Z,46.70
2018-02-21T23:59:11.698Z,46.60
